createdAt,value
2022-12-11T00:03:46.278Z,91834.91
2022-12-11T00:08:57.014Z,91825.34
2022-12-11T00:14:04.132Z,91831.77
2022-12-11T00:19:11.022Z,91835.20
2022-12-11T00:24:18.291Z,91819.65
2022-12-11T00:29:25.534Z,91820.47
2022-12-11T00:34:32.523Z,91834.90
2022-12-11T00:39:40.784Z,91839.60
2022-12-11T00:44:47.469Z,91838.77
2022-12-11T00:49:54.173Z,91835.95
2022-12-11T00:55:01.201Z,91844.56
2022-12-11T01:00:09.424Z,91845.80
2022-12-11T01:05:16.374Z,91694.95
2022-12-11T01:10:26.427Z,91860.29
2022-12-11T01:15:41.337Z,91857.70
2022-12-11T01:20:47.000Z,91866.38
2022-12-11T01:25:53.888Z,91875.45
2022-12-11T01:31:00.572Z,91872.32
2022-12-11T01:36:14.898Z,91886.55
2022-12-11T01:41:21.724Z,91893.45
2022-12-11T01:46:30.226Z,91904.94
2022-12-11T01:51:44.011Z,91904.22
2022-12-11T01:56:51.895Z,91905.30
2022-12-11T02:02:02.799Z,91913.09
2022-12-11T02:07:11.514Z,91911.41
2022-12-11T02:12:37.442Z,91917.77
2022-12-11T02:17:48.682Z,91923.47
2022-12-11T02:23:18.128Z,91911.30
2022-12-11T02:28:46.730Z,91915.95
2022-12-11T02:34:15.431Z,91924.15
2022-12-11T02:39:24.225Z,91916.92
2022-12-11T02:44:34.141Z,91921.14
2022-12-11T02:49:44.084Z,91929.77
2022-12-11T02:54:53.738Z,91928.56
2022-12-11T03:00:00.588Z,91928.16
2022-12-11T03:05:09.011Z,91934.32
2022-12-11T03:10:19.328Z,91939.20
2022-12-11T03:15:33.351Z,91957.69
2022-12-11T03:20:47.712Z,91945.75
2022-12-11T03:26:07.050Z,91939.34
2022-12-11T03:31:20.740Z,91937.35
2022-12-11T03:36:29.284Z,91929.63
2022-12-11T03:41:37.868Z,91922.41
2022-12-11T03:46:47.018Z,91905.02
2022-12-11T03:51:56.730Z,91902.65
2022-12-11T03:57:06.185Z,91899.32
2022-12-11T04:02:13.275Z,91898.28
2022-12-11T04:07:20.385Z,91894.25
2022-12-11T04:12:28.071Z,91885.17
2022-12-11T04:17:55.223Z,91885.63
2022-12-11T04:23:21.009Z,91889.53
2022-12-11T04:28:28.017Z,91893.84
2022-12-11T04:33:34.846Z,91894.08
2022-12-11T04:38:42.635Z,91894.17
2022-12-11T04:43:49.586Z,91896.48
2022-12-11T04:48:57.929Z,91887.57
2022-12-11T04:54:05.065Z,91881.39
2022-12-11T04:59:12.037Z,91884.33
2022-12-11T05:04:18.822Z,91876.62
2022-12-11T05:09:26.463Z,91879.61
2022-12-11T05:14:33.325Z,91880.14
2022-12-11T05:19:40.364Z,91888.72
2022-12-11T05:24:47.972Z,91883.80
2022-12-11T05:29:59.413Z,91888.64
2022-12-11T05:35:04.433Z,91914.23
2022-12-11T05:40:13.130Z,91914.55
2022-12-11T05:45:19.945Z,91922.63
2022-12-11T05:50:27.294Z,91932.17
2022-12-11T05:55:38.328Z,91929.16
2022-12-11T06:00:46.822Z,91933.95
2022-12-11T06:05:53.955Z,91937.47
2022-12-11T06:11:01.997Z,91951.01
2022-12-11T06:16:10.512Z,91962.55
2022-12-11T06:21:21.417Z,91963.55
2022-12-11T06:26:29.122Z,91973.05
2022-12-11T06:31:36.166Z,91972.86
2022-12-11T06:36:43.096Z,91969.33
2022-12-11T06:41:50.315Z,91983.72
2022-12-11T06:46:56.958Z,91988.30
2022-12-11T06:52:03.611Z,91994.40
2022-12-11T06:57:12.601Z,91985.50
2022-12-11T07:02:21.386Z,91983.24
2022-12-11T07:07:28.682Z,91993.62
2022-12-11T07:12:35.618Z,92007.23
2022-12-11T07:17:42.729Z,92003.84
2022-12-11T07:22:49.495Z,92005.29
2022-12-11T07:27:56.276Z,92021.33
2022-12-11T07:33:03.263Z,92027.15
2022-12-11T07:38:11.104Z,92027.69
2022-12-11T07:43:18.171Z,92025.77
2022-12-11T07:48:25.289Z,92020.16
2022-12-11T07:53:31.998Z,92023.16
2022-12-11T07:58:39.479Z,92027.39
2022-12-11T08:03:46.773Z,92029.76
2022-12-11T08:08:56.033Z,92047.95
2022-12-11T08:14:02.867Z,92038.68
2022-12-11T08:19:09.439Z,92050.83
2022-12-11T08:24:18.290Z,92053.06
2022-12-11T08:29:25.915Z,92043.11
2022-12-11T08:34:32.823Z,92049.31
2022-12-11T08:39:40.128Z,92057.12
2022-12-11T08:44:46.998Z,92058.76
2022-12-11T08:49:53.845Z,92058.99
2022-12-11T08:55:01.125Z,92065.97
2022-12-11T09:00:14.242Z,92065.08
2022-12-11T09:05:21.407Z,91893.30
2022-12-11T09:10:28.524Z,92046.81
2022-12-11T09:15:36.420Z,92045.03
2022-12-11T09:20:43.405Z,92050.86
2022-12-11T09:25:51.421Z,92051.25
2022-12-11T09:30:58.696Z,92057.40
2022-12-11T09:36:07.746Z,92055.68
2022-12-11T09:41:40.814Z,92062.25
2022-12-11T09:46:48.829Z,92052.58
2022-12-11T09:52:09.216Z,92050.77
2022-12-11T09:57:30.020Z,92065.78
2022-12-11T10:03:09.018Z,92057.73
2022-12-11T10:08:44.456Z,92063.05
2022-12-11T10:14:33.348Z,92063.67
2022-12-11T10:19:42.610Z,92054.44
2022-12-11T10:25:11.539Z,92063.73
2022-12-11T10:30:21.802Z,92057.20
2022-12-11T10:35:38.517Z,92060.20
2022-12-11T10:40:49.941Z,92059.18
2022-12-11T10:45:57.867Z,92060.53
2022-12-11T10:51:08.282Z,92075.58
2022-12-11T10:56:15.712Z,92069.64
2022-12-11T11:01:26.268Z,92071.50
2022-12-11T11:06:33.320Z,92055.34
2022-12-11T11:11:40.927Z,92044.95
2022-12-11T11:16:50.848Z,92046.04
2022-12-11T11:22:04.598Z,92047.62
2022-12-11T11:27:37.296Z,92031.19
2022-12-11T11:32:44.557Z,92032.38
2022-12-11T11:38:20.855Z,92037.41
2022-12-11T11:43:47.826Z,92039.64
2022-12-11T11:49:17.772Z,92038.39
2022-12-11T11:54:49.729Z,92036.47
2022-12-11T12:00:05.216Z,92038.34
2022-12-11T12:05:21.085Z,92038.96
2022-12-11T12:10:49.727Z,92033.50
2022-12-11T12:16:02.121Z,92023.59
2022-12-11T12:21:31.291Z,92025.08
2022-12-11T12:26:47.338Z,92025.38
2022-12-11T12:32:13.196Z,92028.37
2022-12-11T12:37:54.050Z,92024.76
2022-12-11T12:43:29.189Z,92027.94
2022-12-11T12:48:36.097Z,92028.66
2022-12-11T12:53:47.393Z,92028.75
2022-12-11T12:58:55.046Z,92026.09
2022-12-11T13:04:32.446Z,92026.76
2022-12-11T13:09:26.185Z,92033.86
2022-12-11T13:14:34.852Z,92034.13
2022-12-11T13:19:42.903Z,92045.44
2022-12-11T13:25:02.132Z,92038.12
2022-12-11T13:30:25.142Z,92039.59
2022-12-11T13:35:34.728Z,92051.38
2022-12-11T13:40:44.478Z,92054.70
2022-12-11T13:46:00.463Z,92068.55
2022-12-11T13:51:08.814Z,92081.98
2022-12-11T13:56:23.297Z,92085.05
2022-12-11T14:01:35.429Z,92090.33
2022-12-11T14:06:42.682Z,92087.92
2022-12-11T14:11:56.435Z,92093.19
2022-12-11T14:16:59.091Z,92111.01
2022-12-11T14:22:08.483Z,92112.64
2022-12-11T14:27:19.283Z,92117.72
2022-12-11T14:32:38.668Z,92127.95
2022-12-11T14:37:45.840Z,92130.00
2022-12-11T14:43:00.430Z,92140.63
2022-12-11T14:48:17.328Z,92141.66
2022-12-11T14:53:28.566Z,92145.67
2022-12-11T14:58:41.423Z,92156.34
2022-12-11T15:03:48.218Z,92162.72
2022-12-11T15:08:55.755Z,92171.67
2022-12-11T15:14:05.646Z,92170.33
2022-12-11T15:19:28.789Z,92178.12
2022-12-11T15:24:43.886Z,92188.13
2022-12-11T15:29:50.665Z,92186.86
2022-12-11T15:35:00.707Z,92022.73
2022-12-11T15:40:09.118Z,92193.57
2022-12-11T15:45:29.080Z,92030.66
2022-12-11T15:50:35.769Z,92200.42
2022-12-11T15:55:42.687Z,92208.05
2022-12-11T16:00:49.654Z,92212.88
2022-12-11T16:05:56.610Z,92210.28
2022-12-11T16:11:03.393Z,92226.72
2022-12-11T16:16:10.659Z,92223.59
2022-12-11T16:21:21.389Z,92231.34
2022-12-11T16:26:26.925Z,92228.77
2022-12-11T16:31:34.059Z,92235.61
2022-12-11T16:36:40.847Z,92228.60
2022-12-11T16:41:47.733Z,92229.39
2022-12-11T16:46:56.000Z,92230.31
2022-12-11T16:52:02.732Z,92232.36
2022-12-11T16:57:10.936Z,92232.91
2022-12-11T17:02:18.607Z,92238.03
2022-12-11T17:07:25.506Z,92242.23
2022-12-11T17:12:32.728Z,92243.13
2022-12-11T17:17:41.512Z,92255.72
2022-12-11T17:22:48.362Z,92247.31
2022-12-11T17:27:55.088Z,92242.76
2022-12-11T17:33:03.183Z,92244.47
2022-12-11T17:38:10.140Z,92247.34
2022-12-11T17:43:17.210Z,92247.69
2022-12-11T17:48:24.239Z,92247.45
2022-12-11T17:53:31.258Z,92248.23
2022-12-11T17:58:38.202Z,92239.54
2022-12-11T18:03:45.221Z,92247.17
2022-12-11T18:08:52.245Z,92245.59
2022-12-11T18:13:59.174Z,92245.73
2022-12-11T18:19:08.836Z,92248.31
2022-12-11T18:24:15.574Z,92246.58
2022-12-11T18:29:22.253Z,92260.06
2022-12-11T18:34:29.686Z,92252.00
2022-12-11T18:39:37.018Z,92249.02
2022-12-11T18:44:43.731Z,92257.06
2022-12-11T18:49:50.464Z,92256.97
2022-12-11T18:54:57.687Z,92260.53
2022-12-11T19:00:07.899Z,92261.50
2022-12-11T19:05:15.345Z,92263.45
2022-12-11T19:10:22.088Z,92268.48
2022-12-11T19:15:29.075Z,92264.07
2022-12-11T19:21:03.245Z,92265.16
2022-12-11T19:25:49.346Z,92260.81
2022-12-11T19:30:56.072Z,92256.05
2022-12-11T19:36:10.303Z,92262.80
2022-12-11T19:41:23.681Z,92254.85
2022-12-11T19:46:31.210Z,92248.81
2022-12-11T19:51:41.401Z,92249.78
2022-12-11T19:56:48.285Z,92251.99
2022-12-11T20:01:55.277Z,92257.16
2022-12-11T20:07:02.103Z,92256.03
2022-12-11T20:12:10.711Z,92253.60
2022-12-11T20:17:17.435Z,92256.69
2022-12-11T20:22:24.182Z,92256.45
2022-12-11T20:27:31.158Z,92256.20
2022-12-11T20:32:37.830Z,92251.13
2022-12-11T20:37:44.760Z,92256.09
2022-12-11T20:42:51.705Z,92253.02
2022-12-11T20:47:58.761Z,92258.69
2022-12-11T20:53:06.485Z,92265.55
2022-12-11T20:58:13.264Z,92263.91
2022-12-11T21:03:20.327Z,92270.23
2022-12-11T21:08:27.877Z,92265.29
2022-12-11T21:13:36.379Z,92268.93
2022-12-11T21:18:44.857Z,92268.06
2022-12-11T21:23:52.389Z,92273.70
2022-12-11T21:28:59.462Z,92277.54
2022-12-11T21:34:07.011Z,92283.41
2022-12-11T21:39:14.128Z,92284.11
2022-12-11T21:49:30.680Z,92293.54
2022-12-11T21:54:37.884Z,92291.20
2022-12-11T21:59:44.711Z,92299.80
2022-12-11T22:04:51.746Z,92299.57
2022-12-11T22:09:58.731Z,92310.58
2022-12-11T22:15:08.046Z,92314.60
2022-12-11T22:20:15.132Z,92317.25
2022-12-11T22:25:22.013Z,92321.16
2022-12-11T22:30:28.954Z,92325.64
2022-12-11T22:35:36.178Z,92319.55
2022-12-11T22:40:44.165Z,92318.44
2022-12-11T22:45:51.279Z,92317.68
2022-12-11T22:50:58.591Z,92322.94
2022-12-11T22:56:10.656Z,92322.46
2022-12-11T23:01:21.927Z,92321.06
2022-12-11T23:06:28.837Z,92311.58
2022-12-11T23:11:38.745Z,92321.83
2022-12-11T23:16:46.956Z,92323.88
2022-12-11T23:21:54.326Z,92318.94
2022-12-11T23:27:02.826Z,92324.32
2022-12-11T23:32:10.180Z,92326.35
2022-12-11T23:37:17.057Z,92325.02
2022-12-11T23:42:24.034Z,92328.63
2022-12-11T23:47:31.250Z,92325.56
2022-12-11T23:52:38.025Z,92331.80
2022-12-11T23:57:44.753Z,92334.89
